North Tunica, Mississippi
Current Conditions -  °F | °C
As of 2:15 PM on Wednesday 28 Jan 2015 (Local Time) from KUTA Reporting Station
Clear Clear  
Wind Chill: 59°   Ceiling: Unl
Heat Index: 59°   Visibility: 10mi
Dew Point: 34°   Wind: 10mph
Humidity: 39%   Direction: 160°SSE
Pressure: 30.19"   Gusts: NA
Location:  34.6827°N, 90.3615°W
Report Text: KUTA 282015Z AUTO 16009KT 10SM CLR 15/01 A3019 RMK AO2
Loading
Personal Weather Stations






























Interactive Weather Map New forecast layout! Learn more

10-Day Weather Forecast

Advertisements
Track Severe Weather on mobile